sensor_id;sensor_type;location;lat;lon;timestamp;P1;P2;P0
72031;PMS5003;49185;42.320;23.198;2023-06-14T00:01:50;5.00;5.00;0.00
72031;PMS5003;49185;42.320;23.198;2023-06-14T00:04:15;5.00;5.00;0.00
72031;PMS5003;49185;42.320;23.198;2023-06-14T00:06:41;4.00;4.00;0.00
72031;PMS5003;49185;42.320;23.198;2023-06-14T00:09:06;4.00;4.00;0.00
72031;PMS5003;49185;42.320;23.198;2023-06-14T00:11:32;5.00;5.00;0.00
72031;PMS5003;49185;42.320;23.198;2023-06-14T00:13:57;7.00;4.00;0.67
72031;PMS5003;49185;42.320;23.198;2023-06-14T00:16:23;6.00;5.67;0.00
72031;PMS5003;49185;42.320;23.198;2023-06-14T00:18:48;7.00;6.00;0.00
72031;PMS5003;49185;42.320;23.198;2023-06-14T00:21:14;6.33;5.67;0.00
72031;PMS5003;49185;42.320;23.198;2023-06-14T00:23:39;6.00;5.00;0.33
72031;PMS5003;49185;42.320;23.198;2023-06-14T00:26:05;4.00;4.00;0.00
72031;PMS5003;49185;42.320;23.198;2023-06-14T00:28:30;4.00;3.00;0.00
72031;PMS5003;49185;42.320;23.198;2023-06-14T00:30:55;2.00;2.00;0.00
72031;PMS5003;49185;42.320;23.198;2023-06-14T00:33:21;5.00;3.00;0.00
72031;PMS5003;49185;42.320;23.198;2023-06-14T00:35:46;5.67;4.00;0.00
72031;PMS5003;49185;42.320;23.198;2023-06-14T00:38:12;4.00;3.00;0.00
72031;PMS5003;49185;42.320;23.198;2023-06-14T00:40:37;3.00;3.00;0.00
72031;PMS5003;49185;42.320;23.198;2023-06-14T00:43:03;4.67;4.67;0.00
72031;PMS5003;49185;42.320;23.198;2023-06-14T00:45:28;3.33;3.33;1.00
72031;PMS5003;49185;42.320;23.198;2023-06-14T00:47:54;4.00;3.33;1.00
72031;PMS5003;49185;42.320;23.198;2023-06-14T00:50:20;4.00;4.00;1.00
72031;PMS5003;49185;42.320;23.198;2023-06-14T00:52:46;5.00;4.00;0.00
72031;PMS5003;49185;42.320;23.198;2023-06-14T00:55:11;6.00;5.00;1.00
72031;PMS5003;49185;42.320;23.198;2023-06-14T00:57:37;3.00;3.00;0.00
72031;PMS5003;49185;42.320;23.198;2023-06-14T01:00:03;6.75;5.75;0.00
72031;PMS5003;49185;42.320;23.198;2023-06-14T01:02:29;6.00;6.00;1.00
72031;PMS5003;49185;42.320;23.198;2023-06-14T01:04:54;7.00;6.00;2.00
72031;PMS5003;49185;42.320;23.198;2023-06-14T01:07:34;5.00;4.00;3.00
72031;PMS5003;49185;42.320;23.198;2023-06-14T01:15:57;5.00;5.00;2.00
72031;PMS5003;49185;42.320;23.198;2023-06-14T01:18:23;7.00;6.00;1.00
72031;PMS5003;49185;42.320;23.198;2023-06-14T01:20:48;6.00;6.00;2.00
72031;PMS5003;49185;42.320;23.198;2023-06-14T01:23:13;6.00;5.33;1.33
72031;PMS5003;49185;42.320;23.198;2023-06-14T01:25:39;6.00;6.00;0.00
72031;PMS5003;49185;42.320;23.198;2023-06-14T01:28:05;7.00;6.33;0.00
72031;PMS5003;49185;42.320;23.198;2023-06-14T01:30:31;6.50;6.25;0.00
72031;PMS5003;49185;42.320;23.198;2023-06-14T01:32:57;7.00;6.33;1.00
72031;PMS5003;49185;42.320;23.198;2023-06-14T01:35:23;8.00;7.75;2.00
72031;PMS5003;49185;42.320;23.198;2023-06-14T01:37:49;8.00;8.00;1.00
72031;PMS5003;49185;42.320;23.198;2023-06-14T01:40:16;5.00;5.00;1.00
72031;PMS5003;49185;42.320;23.198;2023-06-14T01:42:42;5.00;5.00;0.50
72031;PMS5003;49185;42.320;23.198;2023-06-14T01:45:11;2.00;2.00;0.00
72031;PMS5003;49185;42.320;23.198;2023-06-14T01:47:36;5.00;5.00;0.00
72031;PMS5003;49185;42.320;23.198;2023-06-14T01:50:03;7.00;4.00;0.00
72031;PMS5003;49185;42.320;23.198;2023-06-14T01:52:28;7.00;6.50;0.00
72031;PMS5003;49185;42.320;23.198;2023-06-14T01:54:54;5.00;5.00;0.00
72031;PMS5003;49185;42.320;23.198;2023-06-14T01:57:19;6.00;5.00;0.00
72031;PMS5003;49185;42.320;23.198;2023-06-14T01:59:46;7.00;5.00;0.00
72031;PMS5003;49185;42.320;23.198;2023-06-14T02:02:11;5.00;5.00;0.00
72031;PMS5003;49185;42.320;23.198;2023-06-14T02:04:36;2.00;2.00;0.00
72031;PMS5003;49185;42.320;23.198;2023-06-14T02:07:02;6.00;5.00;0.00
72031;PMS5003;49185;42.320;23.198;2023-06-14T02:09:27;4.00;4.00;0.00
72031;PMS5003;49185;42.320;23.198;2023-06-14T02:11:53;5.33;5.00;0.00
72031;PMS5003;49185;42.320;23.198;2023-06-14T02:14:18;5.00;5.00;0.00
72031;PMS5003;49185;42.320;23.198;2023-06-14T02:16:43;6.00;5.00;0.00
72031;PMS5003;49185;42.320;23.198;2023-06-14T02:19:09;6.33;6.33;1.00
72031;PMS5003;49185;42.320;23.198;2023-06-14T02:21:34;6.67;6.67;1.00
72031;PMS5003;49185;42.320;23.198;2023-06-14T02:24:00;6.00;6.00;1.00
72031;PMS5003;49185;42.320;23.198;2023-06-14T02:26:25;13.67;13.67;6.33
72031;PMS5003;49185;42.320;23.198;2023-06-14T02:28:51;12.00;9.33;3.00
72031;PMS5003;49185;42.320;23.198;2023-06-14T02:31:16;7.00;7.00;2.00
72031;PMS5003;49185;42.320;23.198;2023-06-14T02:33:41;10.33;7.33;2.00
72031;PMS5003;49185;42.320;23.198;2023-06-14T02:36:07;9.33;7.00;1.00
72031;PMS5003;49185;42.320;23.198;2023-06-14T02:38:32;8.00;7.00;0.00
72031;PMS5003;49185;42.320;23.198;2023-06-14T02:40:58;6.00;6.00;0.00
72031;PMS5003;49185;42.320;23.198;2023-06-14T02:43:23;6.00;5.00;0.00
72031;PMS5003;49185;42.320;23.198;2023-06-14T02:45:48;9.00;8.00;0.00
72031;PMS5003;49185;42.320;23.198;2023-06-14T02:48:14;7.00;6.00;0.00
72031;PMS5003;49185;42.320;23.198;2023-06-14T02:50:39;8.00;7.00;2.00
72031;PMS5003;49185;42.320;23.198;2023-06-14T02:53:05;10.00;8.00;1.00
72031;PMS5003;49185;42.320;23.198;2023-06-14T02:55:30;9.00;6.67;0.00
72031;PMS5003;49185;42.320;23.198;2023-06-14T02:57:55;8.00;6.00;2.00
72031;PMS5003;49185;42.320;23.198;2023-06-14T03:00:21;6.67;5.67;1.00
72031;PMS5003;49185;42.320;23.198;2023-06-14T03:02:46;8.00;7.00;2.00
72031;PMS5003;49185;42.320;23.198;2023-06-14T03:05:12;6.00;6.00;1.00
72031;PMS5003;49185;42.320;23.198;2023-06-14T03:07:38;7.00;6.00;1.00
72031;PMS5003;49185;42.320;23.198;2023-06-14T03:10:03;8.00;7.00;1.00
72031;PMS5003;49185;42.320;23.198;2023-06-14T03:12:29;7.00;6.33;2.00
72031;PMS5003;49185;42.320;23.198;2023-06-14T03:14:54;6.00;5.00;1.00
72031;PMS5003;49185;42.320;23.198;2023-06-14T03:17:20;6.33;4.67;2.00
72031;PMS5003;49185;42.320;23.198;2023-06-14T03:19:45;5.00;5.00;1.00
72031;PMS5003;49185;42.320;23.198;2023-06-14T03:22:10;7.00;6.00;0.00
72031;PMS5003;49185;42.320;23.198;2023-06-14T03:24:36;8.00;7.00;1.67
72031;PMS5003;49185;42.320;23.198;2023-06-14T03:27:01;5.00;5.00;1.00
72031;PMS5003;49185;42.320;23.198;2023-06-14T03:29:27;6.00;6.00;2.00
72031;PMS5003;49185;42.320;23.198;2023-06-14T03:32:02;7.33;5.00;1.00
72031;PMS5003;49185;42.320;23.198;2023-06-14T03:34:28;7.00;5.00;1.00
72031;PMS5003;49185;42.320;23.198;2023-06-14T03:36:54;5.00;4.33;0.00
72031;PMS5003;49185;42.320;23.198;2023-06-14T03:39:19;6.00;5.00;0.00
72031;PMS5003;49185;42.320;23.198;2023-06-14T03:41:45;4.25;4.00;0.00
72031;PMS5003;49185;42.320;23.198;2023-06-14T03:44:11;6.50;6.50;0.00
72031;PMS5003;49185;42.320;23.198;2023-06-14T03:46:38;6.25;5.25;0.00
72031;PMS5003;49185;42.320;23.198;2023-06-14T03:49:04;5.00;4.67;0.00
72031;PMS5003;49185;42.320;23.198;2023-06-14T03:51:29;7.00;5.00;0.00
72031;PMS5003;49185;42.320;23.198;2023-06-14T03:53:55;6.00;4.00;0.00
72031;PMS5003;49185;42.320;23.198;2023-06-14T03:56:20;6.00;3.00;0.00
72031;PMS5003;49185;42.320;23.198;2023-06-14T03:58:45;4.00;3.00;0.00
72031;PMS5003;49185;42.320;23.198;2023-06-14T04:01:11;3.00;3.00;1.00
72031;PMS5003;49185;42.320;23.198;2023-06-14T04:03:36;4.00;3.00;0.00
72031;PMS5003;49185;42.320;23.198;2023-06-14T04:06:02;3.67;3.33;0.00
72031;PMS5003;49185;42.320;23.198;2023-06-14T04:08:27;5.00;4.00;0.00
72031;PMS5003;49185;42.320;23.198;2023-06-14T04:10:53;5.00;4.00;0.00
72031;PMS5003;49185;42.320;23.198;2023-06-14T04:13:18;4.33;4.00;0.00
72031;PMS5003;49185;42.320;23.198;2023-06-14T04:15:44;4.33;4.33;0.00
72031;PMS5003;49185;42.320;23.198;2023-06-14T04:18:09;5.00;5.00;0.00
72031;PMS5003;49185;42.320;23.198;2023-06-14T04:20:34;5.33;3.67;0.00
72031;PMS5003;49185;42.320;23.198;2023-06-14T04:23:13;4.67;3.67;0.00
72031;PMS5003;49185;42.320;23.198;2023-06-14T04:25:39;4.00;4.00;0.00
72031;PMS5003;49185;42.320;23.198;2023-06-14T04:28:05;4.00;4.00;1.00
72031;PMS5003;49185;42.320;23.198;2023-06-14T04:30:30;3.00;3.00;1.00
72031;PMS5003;49185;42.320;23.198;2023-06-14T04:32:56;6.33;6.00;1.00
72031;PMS5003;49185;42.320;23.198;2023-06-14T04:35:21;9.00;9.00;2.00
72031;PMS5003;49185;42.320;23.198;2023-06-14T04:37:46;5.00;5.00;0.33
72031;PMS5003;49185;42.320;23.198;2023-06-14T04:40:12;6.00;6.00;1.00
72031;PMS5003;49185;42.320;23.198;2023-06-14T04:42:37;8.00;7.67;1.00
72031;PMS5003;49185;42.320;23.198;2023-06-14T04:45:03;8.00;8.00;2.00
72031;PMS5003;49185;42.320;23.198;2023-06-14T04:47:29;7.50;7.50;2.00
72031;PMS5003;49185;42.320;23.198;2023-06-14T04:49:54;10.00;8.00;1.67
72031;PMS5003;49185;42.320;23.198;2023-06-14T04:52:20;11.67;9.00;3.00
72031;PMS5003;49185;42.320;23.198;2023-06-14T04:54:45;12.00;9.00;2.00
72031;PMS5003;49185;42.320;23.198;2023-06-14T04:57:10;9.67;8.67;2.00
72031;PMS5003;49185;42.320;23.198;2023-06-14T04:59:36;8.00;8.00;3.00
72031;PMS5003;49185;42.320;23.198;2023-06-14T05:02:01;11.00;9.00;3.00
72031;PMS5003;49185;42.320;23.198;2023-06-14T05:04:27;12.33;9.33;3.00
72031;PMS5003;49185;42.320;23.198;2023-06-14T05:06:52;13.67;11.33;4.00
72031;PMS5003;49185;42.320;23.198;2023-06-14T05:09:18;12.00;11.00;5.33
72031;PMS5003;49185;42.320;23.198;2023-06-14T05:11:43;11.33;10.00;4.33
72031;PMS5003;49185;42.320;23.198;2023-06-14T05:14:10;7.00;6.00;3.00
72031;PMS5003;49185;42.320;23.198;2023-06-14T05:16:38;7.00;6.25;3.00
72031;PMS5003;49185;42.320;23.198;2023-06-14T05:19:03;7.67;7.67;2.00
72031;PMS5003;49185;42.320;23.198;2023-06-14T05:21:29;7.00;7.00;2.00
72031;PMS5003;49185;42.320;23.198;2023-06-14T05:23:54;8.00;8.00;3.00
72031;PMS5003;49185;42.320;23.198;2023-06-14T05:26:20;9.00;8.00;3.00
72031;PMS5003;49185;42.320;23.198;2023-06-14T05:28:45;6.00;6.00;3.00
72031;PMS5003;49185;42.320;23.198;2023-06-14T05:31:11;7.33;6.00;2.00
72031;PMS5003;49185;42.320;23.198;2023-06-14T05:33:36;6.00;6.00;2.67
72031;PMS5003;49185;42.320;23.198;2023-06-14T05:36:01;7.00;5.33;2.00
72031;PMS5003;49185;42.320;23.198;2023-06-14T05:38:27;8.00;5.67;1.00
72031;PMS5003;49185;42.320;23.198;2023-06-14T05:40:52;7.00;5.00;1.00
72031;PMS5003;49185;42.320;23.198;2023-06-14T05:43:18;6.33;6.00;2.00
72031;PMS5003;49185;42.320;23.198;2023-06-14T05:45:43;7.00;7.00;2.00
72031;PMS5003;49185;42.320;23.198;2023-06-14T05:48:08;8.00;8.00;3.00
72031;PMS5003;49185;42.320;23.198;2023-06-14T05:50:34;9.33;9.33;3.67
72031;PMS5003;49185;42.320;23.198;2023-06-14T05:52:59;7.67;7.67;3.00
72031;PMS5003;49185;42.320;23.198;2023-06-14T05:55:25;7.33;7.33;3.00
72031;PMS5003;49185;42.320;23.198;2023-06-14T05:57:50;7.00;6.67;1.33
72031;PMS5003;49185;42.320;23.198;2023-06-14T06:00:16;7.33;6.00;1.00
72031;PMS5003;49185;42.320;23.198;2023-06-14T06:02:42;11.00;9.67;4.00
72031;PMS5003;49185;42.320;23.198;2023-06-14T06:05:08;10.00;7.00;3.00
72031;PMS5003;49185;42.320;23.198;2023-06-14T06:07:37;8.50;6.75;2.25
72031;PMS5003;49185;42.320;23.198;2023-06-14T06:10:03;7.33;7.00;2.00
72031;PMS5003;49185;42.320;23.198;2023-06-14T06:12:29;6.50;6.50;2.00
72031;PMS5003;49185;42.320;23.198;2023-06-14T06:14:54;6.67;6.67;1.00
72031;PMS5003;49185;42.320;23.198;2023-06-14T06:17:20;6.00;6.00;2.00
72031;PMS5003;49185;42.320;23.198;2023-06-14T06:19:45;7.00;6.67;2.00
72031;PMS5003;49185;42.320;23.198;2023-06-14T06:22:11;6.33;6.00;3.00
72031;PMS5003;49185;42.320;23.198;2023-06-14T06:24:36;8.00;8.00;2.00
72031;PMS5003;49185;42.320;23.198;2023-06-14T06:27:02;7.00;7.00;2.00
72031;PMS5003;49185;42.320;23.198;2023-06-14T06:29:27;10.33;8.00;3.00
72031;PMS5003;49185;42.320;23.198;2023-06-14T06:31:53;9.00;7.00;3.00
72031;PMS5003;49185;42.320;23.198;2023-06-14T06:34:18;8.33;7.00;3.00
72031;PMS5003;49185;42.320;23.198;2023-06-14T06:36:43;8.33;7.00;2.00
72031;PMS5003;49185;42.320;23.198;2023-06-14T06:39:09;7.67;7.33;3.33
72031;PMS5003;49185;42.320;23.198;2023-06-14T06:41:34;9.67;8.00;3.00
72031;PMS5003;49185;42.320;23.198;2023-06-14T06:44:00;9.00;7.00;3.00
72031;PMS5003;49185;42.320;23.198;2023-06-14T06:46:25;9.00;8.00;3.00
72031;PMS5003;49185;42.320;23.198;2023-06-14T06:48:50;9.33;9.33;4.00
72031;PMS5003;49185;42.320;23.198;2023-06-14T06:51:16;8.00;8.00;2.00
72031;PMS5003;49185;42.320;23.198;2023-06-14T06:53:42;9.67;8.00;3.00
72031;PMS5003;49185;42.320;23.198;2023-06-14T06:56:07;7.33;7.00;2.00
72031;PMS5003;49185;42.320;23.198;2023-06-14T06:58:33;10.00;8.00;2.00
72031;PMS5003;49185;42.320;23.198;2023-06-14T07:00:58;9.00;7.00;3.00
72031;PMS5003;49185;42.320;23.198;2023-06-14T07:03:23;7.67;7.00;2.00
72031;PMS5003;49185;42.320;23.198;2023-06-14T07:05:49;9.00;8.00;3.00
72031;PMS5003;49185;42.320;23.198;2023-06-14T07:08:14;8.67;8.67;3.33
72031;PMS5003;49185;42.320;23.198;2023-06-14T07:10:40;10.00;7.33;3.33
72031;PMS5003;49185;42.320;23.198;2023-06-14T07:13:05;10.00;8.00;2.00
72031;PMS5003;49185;42.320;23.198;2023-06-14T07:15:31;10.00;9.67;3.00
72031;PMS5003;49185;42.320;23.198;2023-06-14T07:17:56;7.00;7.00;3.00
72031;PMS5003;49185;42.320;23.198;2023-06-14T07:20:21;7.33;7.00;2.00
72031;PMS5003;49185;42.320;23.198;2023-06-14T07:22:47;8.00;8.00;3.00
72031;PMS5003;49185;42.320;23.198;2023-06-14T07:25:12;10.00;9.00;5.00
72031;PMS5003;49185;42.320;23.198;2023-06-14T07:27:38;9.67;9.67;4.00
72031;PMS5003;49185;42.320;23.198;2023-06-14T07:30:03;9.00;8.67;4.00
72031;PMS5003;49185;42.320;23.198;2023-06-14T07:32:29;13.00;12.00;3.00
72031;PMS5003;49185;42.320;23.198;2023-06-14T07:34:55;9.33;9.00;3.00
72031;PMS5003;49185;42.320;23.198;2023-06-14T07:37:20;9.00;9.00;3.00
72031;PMS5003;49185;42.320;23.198;2023-06-14T07:39:45;10.00;9.00;4.00
72031;PMS5003;49185;42.320;23.198;2023-06-14T07:42:11;9.00;9.00;4.00
72031;PMS5003;49185;42.320;23.198;2023-06-14T07:44:36;8.33;8.33;4.00
72031;PMS5003;49185;42.320;23.198;2023-06-14T07:47:02;11.00;10.00;3.00
72031;PMS5003;49185;42.320;23.198;2023-06-14T07:49:27;10.00;9.00;3.00
72031;PMS5003;49185;42.320;23.198;2023-06-14T07:51:52;11.00;10.00;5.00
72031;PMS5003;49185;42.320;23.198;2023-06-14T07:54:18;13.67;10.67;5.00
72031;PMS5003;49185;42.320;23.198;2023-06-14T07:56:43;17.00;12.33;3.00
72031;PMS5003;49185;42.320;23.198;2023-06-14T07:59:08;16.00;12.67;4.00
72031;PMS5003;49185;42.320;23.198;2023-06-14T08:01:34;12.33;11.00;3.00
72031;PMS5003;49185;42.320;23.198;2023-06-14T08:04:00;11.33;10.67;4.00
72031;PMS5003;49185;42.320;23.198;2023-06-14T08:06:25;15.67;14.00;5.00
72031;PMS5003;49185;42.320;23.198;2023-06-14T08:08:51;16.00;14.00;3.00
72031;PMS5003;49185;42.320;23.198;2023-06-14T08:11:16;14.00;11.00;1.33
72031;PMS5003;49185;42.320;23.198;2023-06-14T08:13:41;13.00;11.00;5.00
72031;PMS5003;49185;42.320;23.198;2023-06-14T08:16:07;14.00;13.00;4.00
72031;PMS5003;49185;42.320;23.198;2023-06-14T08:18:32;15.33;11.33;4.00
72031;PMS5003;49185;42.320;23.198;2023-06-14T08:20:58;14.00;13.00;4.00
72031;PMS5003;49185;42.320;23.198;2023-06-14T08:23:23;15.00;12.00;4.00
72031;PMS5003;49185;42.320;23.198;2023-06-14T08:25:49;16.00;13.00;4.67
72031;PMS5003;49185;42.320;23.198;2023-06-14T08:28:14;13.00;9.33;3.00
72031;PMS5003;49185;42.320;23.198;2023-06-14T08:30:40;12.67;11.00;4.00
72031;PMS5003;49185;42.320;23.198;2023-06-14T08:33:07;17.50;14.00;4.75
72031;PMS5003;49185;42.320;23.198;2023-06-14T08:35:32;17.33;14.67;5.00
72031;PMS5003;49185;42.320;23.198;2023-06-14T08:37:58;17.00;13.67;5.67
72031;PMS5003;49185;42.320;23.198;2023-06-14T08:40:23;17.33;15.33;8.00
72031;PMS5003;49185;42.320;23.198;2023-06-14T08:42:53;19.00;18.00;7.00
72031;PMS5003;49185;42.320;23.198;2023-06-14T08:45:20;17.00;17.00;7.00
72031;PMS5003;49185;42.320;23.198;2023-06-14T08:47:46;15.75;15.25;6.00
72031;PMS5003;49185;42.320;23.198;2023-06-14T08:50:12;14.75;13.25;5.00
72031;PMS5003;49185;42.320;23.198;2023-06-14T08:52:39;11.50;10.25;5.00
72031;PMS5003;49185;42.320;23.198;2023-06-14T08:55:10;14.75;12.00;5.00
72031;PMS5003;49185;42.320;23.198;2023-06-14T08:57:36;18.00;16.00;6.00
72031;PMS5003;49185;42.320;23.198;2023-06-14T09:00:03;17.00;14.00;4.00
72031;PMS5003;49185;42.320;23.198;2023-06-14T09:02:29;18.00;16.00;5.50
72031;PMS5003;49185;42.320;23.198;2023-06-14T09:04:54;20.00;17.67;7.00
72031;PMS5003;49185;42.320;23.198;2023-06-14T09:07:20;18.00;17.00;6.00
72031;PMS5003;49185;42.320;23.198;2023-06-14T09:09:45;16.00;16.00;5.67
72031;PMS5003;49185;42.320;23.198;2023-06-14T09:12:11;15.00;15.00;6.00
72031;PMS5003;49185;42.320;23.198;2023-06-14T09:14:36;17.67;16.67;9.00
72031;PMS5003;49185;42.320;23.198;2023-06-14T09:17:02;18.00;18.00;7.33
72031;PMS5003;49185;42.320;23.198;2023-06-14T09:19:28;17.00;17.00;6.00
72031;PMS5003;49185;42.320;23.198;2023-06-14T09:21:54;15.00;15.00;5.33
72031;PMS5003;49185;42.320;23.198;2023-06-14T09:24:19;16.00;15.00;5.00
72031;PMS5003;49185;42.320;23.198;2023-06-14T09:26:48;15.00;13.67;6.00
72031;PMS5003;49185;42.320;23.198;2023-06-14T09:29:13;16.00;14.00;5.50
72031;PMS5003;49185;42.320;23.198;2023-06-14T09:31:41;15.00;13.00;6.50
72031;PMS5003;49185;42.320;23.198;2023-06-14T09:34:07;16.00;12.25;5.25
72031;PMS5003;49185;42.320;23.198;2023-06-14T09:36:34;16.75;12.75;4.00
72031;PMS5003;49185;42.320;23.198;2023-06-14T09:39:02;13.00;10.00;3.00
72031;PMS5003;49185;42.320;23.198;2023-06-14T09:44:01;12.00;8.25;3.00
72031;PMS5003;49185;42.320;23.198;2023-06-14T09:46:29;11.00;10.50;4.00
72031;PMS5003;49185;42.320;23.198;2023-06-14T09:48:58;10.75;10.75;5.25
72031;PMS5003;49185;42.320;23.198;2023-06-14T09:51:24;9.00;9.00;4.00
72031;PMS5003;49185;42.320;23.198;2023-06-14T09:53:52;8.50;8.25;4.00
72031;PMS5003;49185;42.320;23.198;2023-06-14T09:56:31;8.00;8.00;2.00
72031;PMS5003;49185;42.320;23.198;2023-06-14T09:58:59;9.00;8.00;2.75
72031;PMS5003;49185;42.320;23.198;2023-06-14T10:01:34;8.00;7.75;3.00
72031;PMS5003;49185;42.320;23.198;2023-06-14T10:04:05;7.25;7.25;4.00
72031;PMS5003;49185;42.320;23.198;2023-06-14T10:06:31;9.75;9.75;5.50
72031;PMS5003;49185;42.320;23.198;2023-06-14T10:09:00;8.00;8.00;5.00
72031;PMS5003;49185;42.320;23.198;2023-06-14T10:11:28;8.00;7.00;3.00
72031;PMS5003;49185;42.320;23.198;2023-06-14T10:13:55;9.67;9.67;3.67
72031;PMS5003;49185;42.320;23.198;2023-06-14T10:24:12;8.25;8.00;3.50
72031;PMS5003;49185;42.320;23.198;2023-06-14T10:26:50;6.25;6.25;3.00
72031;PMS5003;49185;42.320;23.198;2023-06-14T10:29:17;6.00;6.00;2.25
72031;PMS5003;49185;42.320;23.198;2023-06-14T10:31:47;8.00;8.00;3.00
72031;PMS5003;49185;42.320;23.198;2023-06-14T10:34:23;8.00;7.25;3.25
72031;PMS5003;49185;42.320;23.198;2023-06-14T10:37:06;8.00;8.00;4.00
72031;PMS5003;49185;42.320;23.198;2023-06-14T10:39:42;7.00;7.00;2.50
72031;PMS5003;49185;42.320;23.198;2023-06-14T10:42:09;8.75;7.50;3.00
72031;PMS5003;49185;42.320;23.198;2023-06-14T10:44:50;7.00;7.00;2.00
72031;PMS5003;49185;42.320;23.198;2023-06-14T10:49:56;8.25;7.25;4.00
72031;PMS5003;49185;42.320;23.198;2023-06-14T10:52:24;7.00;7.00;3.00
72031;PMS5003;49185;42.320;23.198;2023-06-14T10:57:36;6.00;6.00;1.00
72031;PMS5003;49185;42.320;23.198;2023-06-14T11:00:05;7.50;7.00;3.00
72031;PMS5003;49185;42.320;23.198;2023-06-14T11:05:31;9.00;7.50;4.00
72031;PMS5003;49185;42.320;23.198;2023-06-14T11:11:00;6.50;6.25;3.00
72031;PMS5003;49185;42.320;23.198;2023-06-14T11:13:26;7.75;7.75;3.75
72031;PMS5003;49185;42.320;23.198;2023-06-14T11:15:52;6.00;6.00;3.00
72031;PMS5003;49185;42.320;23.198;2023-06-14T11:18:17;8.33;8.00;3.00
72031;PMS5003;49185;42.320;23.198;2023-06-14T11:20:45;8.00;8.00;2.00
72031;PMS5003;49185;42.320;23.198;2023-06-14T11:23:12;10.25;9.75;4.00
72031;PMS5003;49185;42.320;23.198;2023-06-14T11:25:38;8.00;7.00;4.00
72031;PMS5003;49185;42.320;23.198;2023-06-14T11:28:03;8.00;7.00;3.00
72031;PMS5003;49185;42.320;23.198;2023-06-14T11:30:29;7.00;6.00;2.33
72031;PMS5003;49185;42.320;23.198;2023-06-14T11:32:54;9.00;7.67;3.33
72031;PMS5003;49185;42.320;23.198;2023-06-14T11:35:24;9.25;7.50;4.00
72031;PMS5003;49185;42.320;23.198;2023-06-14T11:37:56;7.25;7.25;3.00
72031;PMS5003;49185;42.320;23.198;2023-06-14T11:40:25;9.00;9.00;3.00
72031;PMS5003;49185;42.320;23.198;2023-06-14T11:42:58;7.00;6.00;3.00
72031;PMS5003;49185;42.320;23.198;2023-06-14T11:45:24;8.50;8.50;2.00
72031;PMS5003;49185;42.320;23.198;2023-06-14T11:47:50;8.00;8.00;2.67
72031;PMS5003;49185;42.320;23.198;2023-06-14T11:50:15;7.00;7.00;2.00
72031;PMS5003;49185;42.320;23.198;2023-06-14T11:52:41;7.00;7.00;4.00
72031;PMS5003;49185;42.320;23.198;2023-06-14T11:55:07;8.00;7.00;3.00
72031;PMS5003;49185;42.320;23.198;2023-06-14T11:57:36;9.00;7.50;3.00
72031;PMS5003;49185;42.320;23.198;2023-06-14T12:00:06;11.75;10.75;5.00
72031;PMS5003;49185;42.320;23.198;2023-06-14T12:02:32;11.00;9.00;4.00
72031;PMS5003;49185;42.320;23.198;2023-06-14T12:05:03;8.00;8.00;3.00
72031;PMS5003;49185;42.320;23.198;2023-06-14T12:07:30;8.00;8.00;4.00
72031;PMS5003;49185;42.320;23.198;2023-06-14T12:12:24;8.50;6.50;4.50
72031;PMS5003;49185;42.320;23.198;2023-06-14T12:14:50;8.50;8.50;3.50
72031;PMS5003;49185;42.320;23.198;2023-06-14T12:17:16;7.00;7.00;3.75
72031;PMS5003;49185;42.320;23.198;2023-06-14T12:19:43;7.00;6.50;2.00
72031;PMS5003;49185;42.320;23.198;2023-06-14T12:22:09;7.00;7.00;3.25
72031;PMS5003;49185;42.320;23.198;2023-06-14T12:24:35;7.00;7.00;4.00
72031;PMS5003;49185;42.320;23.198;2023-06-14T12:27:01;8.67;8.00;3.00
72031;PMS5003;49185;42.320;23.198;2023-06-14T12:29:26;10.00;8.33;3.00
72031;PMS5003;49185;42.320;23.198;2023-06-14T12:31:52;35.67;32.00;21.00
72031;PMS5003;49185;42.320;23.198;2023-06-14T12:34:17;115.33;107.67;67.33
72031;PMS5003;49185;42.320;23.198;2023-06-14T12:36:43;74.00;67.67;41.33
72031;PMS5003;49185;42.320;23.198;2023-06-14T12:39:08;34.67;31.00;17.33
72031;PMS5003;49185;42.320;23.198;2023-06-14T12:41:34;10.00;9.33;2.33
72031;PMS5003;49185;42.320;23.198;2023-06-14T12:43:59;6.00;6.00;1.00
72031;PMS5003;49185;42.320;23.198;2023-06-14T12:46:24;5.33;5.33;0.00
72031;PMS5003;49185;42.320;23.198;2023-06-14T12:48:50;4.00;3.00;1.00
72031;PMS5003;49185;42.320;23.198;2023-06-14T12:51:15;7.00;6.00;1.67
72031;PMS5003;49185;42.320;23.198;2023-06-14T12:53:41;5.00;4.33;2.00
72031;PMS5003;49185;42.320;23.198;2023-06-14T12:56:06;7.00;6.33;2.00
72031;PMS5003;49185;42.320;23.198;2023-06-14T12:58:32;5.67;5.00;1.00
72031;PMS5003;49185;42.320;23.198;2023-06-14T13:00:58;7.00;6.00;1.00
72031;PMS5003;49185;42.320;23.198;2023-06-14T13:03:23;8.00;8.00;2.67
72031;PMS5003;49185;42.320;23.198;2023-06-14T13:05:48;8.00;8.00;3.00
72031;PMS5003;49185;42.320;23.198;2023-06-14T13:08:14;7.00;6.33;2.67
72031;PMS5003;49185;42.320;23.198;2023-06-14T13:10:39;9.00;6.00;1.00
72031;PMS5003;49185;42.320;23.198;2023-06-14T13:13:05;6.00;6.00;2.67
72031;PMS5003;49185;42.320;23.198;2023-06-14T13:15:30;7.00;7.00;3.00
72031;PMS5003;49185;42.320;23.198;2023-06-14T13:17:55;6.33;6.33;3.00
72031;PMS5003;49185;42.320;23.198;2023-06-14T13:20:21;7.00;7.00;3.00
72031;PMS5003;49185;42.320;23.198;2023-06-14T13:22:46;9.00;7.00;3.00
72031;PMS5003;49185;42.320;23.198;2023-06-14T13:25:12;9.33;9.00;4.00
72031;PMS5003;49185;42.320;23.198;2023-06-14T13:27:37;29.00;28.00;18.33
72031;PMS5003;49185;42.320;23.198;2023-06-14T13:30:03;59.33;46.67;30.67
72031;PMS5003;49185;42.320;23.198;2023-06-14T13:32:29;132.50;120.75;74.75
72031;PMS5003;49185;42.320;23.198;2023-06-14T13:34:54;82.33;76.00;47.67
72031;PMS5003;49185;42.320;23.198;2023-06-14T13:37:19;81.33;73.33;42.00
72031;PMS5003;49185;42.320;23.198;2023-06-14T13:39:45;73.00;65.00;37.00
72031;PMS5003;49185;42.320;23.198;2023-06-14T13:42:11;58.00;45.67;27.00
72031;PMS5003;49185;42.320;23.198;2023-06-14T13:44:36;47.00;37.00;21.67
72031;PMS5003;49185;42.320;23.198;2023-06-14T13:47:01;47.67;36.67;22.00
72031;PMS5003;49185;42.320;23.198;2023-06-14T13:49:27;35.00;29.33;18.00
72031;PMS5003;49185;42.320;23.198;2023-06-14T13:51:52;24.00;22.00;10.33
72031;PMS5003;49185;42.320;23.198;2023-06-14T13:54:19;19.67;17.67;8.00
72031;PMS5003;49185;42.320;23.198;2023-06-14T13:56:45;16.50;15.00;4.00
72031;PMS5003;49185;42.320;23.198;2023-06-14T13:59:11;14.00;11.00;4.00
72031;PMS5003;49185;42.320;23.198;2023-06-14T14:01:36;10.33;8.33;3.00
72031;PMS5003;49185;42.320;23.198;2023-06-14T14:04:02;8.00;8.00;2.00
72031;PMS5003;49185;42.320;23.198;2023-06-14T14:06:27;9.00;7.67;1.00
72031;PMS5003;49185;42.320;23.198;2023-06-14T14:08:53;8.00;8.00;3.00
72031;PMS5003;49185;42.320;23.198;2023-06-14T14:11:18;9.00;8.33;4.00
72031;PMS5003;49185;42.320;23.198;2023-06-14T14:13:44;5.00;5.00;2.00
72031;PMS5003;49185;42.320;23.198;2023-06-14T14:16:10;5.00;5.00;2.00
72031;PMS5003;49185;42.320;23.198;2023-06-14T14:18:35;6.50;5.00;2.00
72031;PMS5003;49185;42.320;23.198;2023-06-14T14:21:01;6.00;6.00;1.00
72031;PMS5003;49185;42.320;23.198;2023-06-14T14:23:26;4.00;4.00;0.00
72031;PMS5003;49185;42.320;23.198;2023-06-14T14:25:52;5.00;5.00;0.00
72031;PMS5003;49185;42.320;23.198;2023-06-14T14:28:17;6.00;6.00;1.00